sensor_id;sensor_type;location;lat;lon;timestamp;pressure;altitude;pressure_sealevel;temperature;humidity
38285;BME280;24088;42.664;23.354;2022-09-17T00:00:54;94222.81;;;19.32;100.00
38285;BME280;24088;42.664;23.354;2022-09-17T00:01:57;94213.75;;;19.37;100.00
38285;BME280;24088;42.664;23.354;2022-09-17T00:02:59;94212.44;;;19.33;100.00
38285;BME280;24088;42.664;23.354;2022-09-17T00:04:01;94213.22;;;19.39;100.00
38285;BME280;24088;42.664;23.354;2022-09-17T00:05:03;94219.88;;;19.47;100.00
38285;BME280;24088;42.664;23.354;2022-09-17T00:06:05;94215.25;;;19.38;100.00
38285;BME280;24088;42.664;23.354;2022-09-17T00:07:06;94216.75;;;19.34;100.00
38285;BME280;24088;42.664;23.354;2022-09-17T00:08:08;94214.13;;;19.19;100.00
38285;BME280;24088;42.664;23.354;2022-09-17T00:09:10;94221.88;;;19.09;100.00
38285;BME280;24088;42.664;23.354;2022-09-17T00:10:12;94215.66;;;19.20;100.00
38285;BME280;24088;42.664;23.354;2022-09-17T00:11:13;94211.16;;;19.28;100.00
38285;BME280;24088;42.664;23.354;2022-09-17T00:12:15;94210.84;;;19.20;100.00
38285;BME280;24088;42.664;23.354;2022-09-17T00:13:16;94205.31;;;19.26;100.00
38285;BME280;24088;42.664;23.354;2022-09-17T00:14:17;94204.34;;;19.35;100.00
38285;BME280;24088;42.664;23.354;2022-09-17T00:15:18;94193.22;;;19.35;100.00
38285;BME280;24088;42.664;23.354;2022-09-17T00:16:23;94189.94;;;19.36;100.00
38285;BME280;24088;42.664;23.354;2022-09-17T00:17:24;94182.63;;;19.39;100.00
38285;BME280;24088;42.664;23.354;2022-09-17T00:18:27;94187.94;;;19.37;100.00
38285;BME280;24088;42.664;23.354;2022-09-17T00:19:27;94190.72;;;19.37;100.00
38285;BME280;24088;42.664;23.354;2022-09-17T00:20:29;94184.38;;;19.36;100.00
38285;BME280;24088;42.664;23.354;2022-09-17T00:21:30;94190.19;;;19.33;100.00
38285;BME280;24088;42.664;23.354;2022-09-17T00:22:31;94181.78;;;19.27;100.00
38285;BME280;24088;42.664;23.354;2022-09-17T00:23:32;94185.38;;;19.33;100.00
38285;BME280;24088;42.664;23.354;2022-09-17T00:24:33;94181.06;;;19.32;100.00
38285;BME280;24088;42.664;23.354;2022-09-17T00:25:36;94186.34;;;19.30;100.00
38285;BME280;24088;42.664;23.354;2022-09-17T00:26:38;94179.06;;;19.33;100.00
38285;BME280;24088;42.664;23.354;2022-09-17T00:27:38;94178.06;;;19.36;100.00
38285;BME280;24088;42.664;23.354;2022-09-17T00:28:39;94172.25;;;19.39;100.00
38285;BME280;24088;42.664;23.354;2022-09-17T00:29:44;94173.00;;;19.40;100.00
38285;BME280;24088;42.664;23.354;2022-09-17T00:30:47;94182.09;;;19.35;100.00
38285;BME280;24088;42.664;23.354;2022-09-17T00:31:48;94188.69;;;19.37;100.00
38285;BME280;24088;42.664;23.354;2022-09-17T00:32:50;94198.56;;;19.38;100.00
38285;BME280;24088;42.664;23.354;2022-09-17T00:33:53;94189.91;;;19.31;100.00
38285;BME280;24088;42.664;23.354;2022-09-17T00:34:55;94185.63;;;19.35;100.00
38285;BME280;24088;42.664;23.354;2022-09-17T00:35:58;94178.06;;;19.36;100.00
38285;BME280;24088;42.664;23.354;2022-09-17T00:37:00;94176.75;;;19.31;100.00
38285;BME280;24088;42.664;23.354;2022-09-17T00:38:02;94193.63;;;19.22;100.00
38285;BME280;24088;42.664;23.354;2022-09-17T00:39:03;94195.53;;;19.36;100.00
38285;BME280;24088;42.664;23.354;2022-09-17T00:40:05;94193.69;;;19.27;100.00
38285;BME280;24088;42.664;23.354;2022-09-17T00:41:06;94194.47;;;19.28;100.00
38285;BME280;24088;42.664;23.354;2022-09-17T00:42:08;94198.47;;;19.27;100.00
38285;BME280;24088;42.664;23.354;2022-09-17T00:43:10;94212.97;;;19.37;100.00
38285;BME280;24088;42.664;23.354;2022-09-17T00:45:32;94204.81;;;19.27;100.00
38285;BME280;24088;42.664;23.354;2022-09-17T00:46:36;94200.03;;;19.28;100.00
38285;BME280;24088;42.664;23.354;2022-09-17T00:47:38;94204.56;;;19.31;100.00
38285;BME280;24088;42.664;23.354;2022-09-17T00:48:42;94207.63;;;19.33;100.00
38285;BME280;24088;42.664;23.354;2022-09-17T00:49:45;94213.47;;;19.35;100.00
38285;BME280;24088;42.664;23.354;2022-09-17T00:50:47;94212.16;;;19.31;100.00
38285;BME280;24088;42.664;23.354;2022-09-17T00:51:49;94210.66;;;19.30;100.00
38285;BME280;24088;42.664;23.354;2022-09-17T00:52:55;94212.63;;;19.23;100.00
38285;BME280;24088;42.664;23.354;2022-09-17T00:53:56;94204.28;;;19.23;100.00
38285;BME280;24088;42.664;23.354;2022-09-17T00:54:59;94203.28;;;19.26;100.00
38285;BME280;24088;42.664;23.354;2022-09-17T00:56:02;94202.63;;;19.43;100.00
38285;BME280;24088;42.664;23.354;2022-09-17T00:57:05;94206.41;;;19.40;100.00
38285;BME280;24088;42.664;23.354;2022-09-17T00:58:07;94206.88;;;19.33;100.00
38285;BME280;24088;42.664;23.354;2022-09-17T00:59:09;94211.19;;;19.34;100.00
38285;BME280;24088;42.664;23.354;2022-09-17T01:00:10;94211.69;;;19.32;100.00
38285;BME280;24088;42.664;23.354;2022-09-17T01:01:12;94206.88;;;19.33;100.00
38285;BME280;24088;42.664;23.354;2022-09-17T01:02:13;94216.53;;;19.37;100.00
38285;BME280;24088;42.664;23.354;2022-09-17T01:03:15;94225.28;;;19.24;100.00
38285;BME280;24088;42.664;23.354;2022-09-17T01:04:16;94224.78;;;19.26;100.00
38285;BME280;24088;42.664;23.354;2022-09-17T01:05:19;94224.00;;;19.20;100.00
38285;BME280;24088;42.664;23.354;2022-09-17T01:06:22;94227.97;;;19.13;100.00
38285;BME280;24088;42.664;23.354;2022-09-17T01:07:30;94236.63;;;19.21;100.00
38285;BME280;24088;42.664;23.354;2022-09-17T01:08:36;94231.88;;;19.27;100.00
38285;BME280;24088;42.664;23.354;2022-09-17T01:09:42;94221.53;;;19.27;100.00
38285;BME280;24088;42.664;23.354;2022-09-17T01:11:08;94204.28;;;19.23;100.00
38285;BME280;24088;42.664;23.354;2022-09-17T01:12:16;94205.06;;;19.24;100.00
38285;BME280;24088;42.664;23.354;2022-09-17T01:13:23;94204.81;;;19.27;100.00
38285;BME280;24088;42.664;23.354;2022-09-17T01:14:33;94212.66;;;19.29;100.00
38285;BME280;24088;42.664;23.354;2022-09-17T01:15:38;94204.03;;;19.27;100.00
38285;BME280;24088;42.664;23.354;2022-09-17T01:16:43;94180.00;;;19.24;100.00
38285;BME280;24088;42.664;23.354;2022-09-17T01:17:50;94174.63;;;19.15;100.00
38285;BME280;24088;42.664;23.354;2022-09-17T01:18:57;94177.31;;;18.98;100.00
38285;BME280;24088;42.664;23.354;2022-09-17T01:21:34;94188.50;;;19.09;100.00
38285;BME280;24088;42.664;23.354;2022-09-17T01:22:39;94166.75;;;19.08;100.00
38285;BME280;24088;42.664;23.354;2022-09-17T01:23:56;94175.41;;;19.15;100.00
38285;BME280;24088;42.664;23.354;2022-09-17T01:25:10;94192.16;;;19.26;100.00
38285;BME280;24088;42.664;23.354;2022-09-17T01:26:23;94193.91;;;19.24;100.00
38285;BME280;24088;42.664;23.354;2022-09-17T01:28:49;94166.31;;;19.20;100.00
38285;BME280;24088;42.664;23.354;2022-09-17T01:29:57;94186.00;;;19.11;100.00
38285;BME280;24088;42.664;23.354;2022-09-17T01:31:06;94192.56;;;19.14;100.00
38285;BME280;24088;42.664;23.354;2022-09-17T01:32:12;94196.31;;;19.05;100.00
38285;BME280;24088;42.664;23.354;2022-09-17T01:33:21;94197.13;;;19.11;100.00
38285;BME280;24088;42.664;23.354;2022-09-17T01:34:26;94204.50;;;19.20;100.00
38285;BME280;24088;42.664;23.354;2022-09-17T01:35:32;94199.16;;;19.11;100.00
38285;BME280;24088;42.664;23.354;2022-09-17T01:36:40;94185.53;;;19.18;100.00
38285;BME280;24088;42.664;23.354;2022-09-17T01:37:45;94190.03;;;19.10;100.00
38285;BME280;24088;42.664;23.354;2022-09-17T01:38:49;94203.44;;;19.12;100.00
38285;BME280;24088;42.664;23.354;2022-09-17T01:39:55;94207.69;;;19.01;100.00
38285;BME280;24088;42.664;23.354;2022-09-17T01:41:01;94178.94;;;19.16;100.00
38285;BME280;24088;42.664;23.354;2022-09-17T01:42:09;94181.50;;;19.19;100.00
38285;BME280;24088;42.664;23.354;2022-09-17T01:43:15;94183.69;;;19.10;100.00
38285;BME280;24088;42.664;23.354;2022-09-17T01:44:22;94182.47;;;19.16;100.00
38285;BME280;24088;42.664;23.354;2022-09-17T01:45:26;94186.31;;;19.19;100.00
38285;BME280;24088;42.664;23.354;2022-09-17T01:46:33;94177.66;;;19.11;100.00
38285;BME280;24088;42.664;23.354;2022-09-17T01:47:35;94159.69;;;19.12;100.00
38285;BME280;24088;42.664;23.354;2022-09-17T01:48:39;94165.25;;;19.12;100.00
38285;BME280;24088;42.664;23.354;2022-09-17T01:49:43;94168.31;;;19.14;100.00
38285;BME280;24088;42.664;23.354;2022-09-17T01:50:47;94165.03;;;19.16;100.00
38285;BME280;24088;42.664;23.354;2022-09-17T01:51:49;94158.09;;;19.00;100.00
38285;BME280;24088;42.664;23.354;2022-09-17T01:52:52;94132.31;;;19.05;100.00
38285;BME280;24088;42.664;23.354;2022-09-17T01:53:56;94121.59;;;18.87;100.00
38285;BME280;24088;42.664;23.354;2022-09-17T01:55:00;94134.00;;;18.91;100.00
38285;BME280;24088;42.664;23.354;2022-09-17T01:56:04;94148.13;;;18.88;100.00
38285;BME280;24088;42.664;23.354;2022-09-17T01:57:07;94145.91;;;18.92;100.00
38285;BME280;24088;42.664;23.354;2022-09-17T01:58:11;94147.94;;;18.97;100.00
38285;BME280;24088;42.664;23.354;2022-09-17T01:59:15;94149.78;;;19.06;100.00
38285;BME280;24088;42.664;23.354;2022-09-17T02:00:17;94175.25;;;18.93;100.00
38285;BME280;24088;42.664;23.354;2022-09-17T02:01:18;94180.13;;;19.04;100.00
38285;BME280;24088;42.664;23.354;2022-09-17T02:02:25;94196.03;;;19.03;100.00
38285;BME280;24088;42.664;23.354;2022-09-17T02:03:27;94190.94;;;18.96;100.00
38285;BME280;24088;42.664;23.354;2022-09-17T02:04:31;94184.41;;;19.05;100.00
38285;BME280;24088;42.664;23.354;2022-09-17T02:05:33;94178.84;;;19.05;100.00
38285;BME280;24088;42.664;23.354;2022-09-17T02:06:36;94171.59;;;19.18;100.00
38285;BME280;24088;42.664;23.354;2022-09-17T02:07:38;94155.44;;;19.22;100.00
38285;BME280;24088;42.664;23.354;2022-09-17T02:08:42;94155.41;;;19.11;100.00
38285;BME280;24088;42.664;23.354;2022-09-17T02:09:45;94156.19;;;19.17;100.00
38285;BME280;24088;42.664;23.354;2022-09-17T02:10:51;94149.88;;;19.22;100.00
38285;BME280;24088;42.664;23.354;2022-09-17T02:11:54;94145.13;;;19.29;100.00
38285;BME280;24088;42.664;23.354;2022-09-17T02:12:59;94142.03;;;19.21;100.00
38285;BME280;24088;42.664;23.354;2022-09-17T02:14:01;94131.44;;;19.25;100.00
38285;BME280;24088;42.664;23.354;2022-09-17T02:15:05;94116.16;;;19.09;100.00
38285;BME280;24088;42.664;23.354;2022-09-17T02:16:08;94127.59;;;19.17;100.00
38285;BME280;24088;42.664;23.354;2022-09-17T02:17:11;94131.91;;;19.18;100.00
38285;BME280;24088;42.664;23.354;2022-09-17T02:18:18;94115.19;;;19.12;100.00
38285;BME280;24088;42.664;23.354;2022-09-17T02:19:24;94083.09;;;19.17;100.00
38285;BME280;24088;42.664;23.354;2022-09-17T02:20:27;94054.34;;;18.83;100.00
38285;BME280;24088;42.664;23.354;2022-09-17T02:21:31;94042.03;;;19.00;100.00
38285;BME280;24088;42.664;23.354;2022-09-17T02:22:36;94059.31;;;19.10;100.00
38285;BME280;24088;42.664;23.354;2022-09-17T02:23:43;94069.56;;;18.93;100.00
38285;BME280;24088;42.664;23.354;2022-09-17T02:24:46;94080.53;;;18.70;100.00
38285;BME280;24088;42.664;23.354;2022-09-17T02:25:51;94086.09;;;18.70;100.00
38285;BME280;24088;42.664;23.354;2022-09-17T02:26:55;94068.19;;;18.71;100.00
38285;BME280;24088;42.664;23.354;2022-09-17T02:28:00;94061.38;;;18.78;100.00
38285;BME280;24088;42.664;23.354;2022-09-17T02:29:04;94033.66;;;18.89;100.00
38285;BME280;24088;42.664;23.354;2022-09-17T02:30:07;94019.16;;;18.80;100.00
38285;BME280;24088;42.664;23.354;2022-09-17T02:31:08;93997.84;;;18.65;100.00
38285;BME280;24088;42.664;23.354;2022-09-17T02:32:10;94011.63;;;18.86;100.00
38285;BME280;24088;42.664;23.354;2022-09-17T02:33:12;94003.31;;;18.97;100.00
38285;BME280;24088;42.664;23.354;2022-09-17T02:34:16;94008.63;;;18.89;100.00
38285;BME280;24088;42.664;23.354;2022-09-17T02:35:17;94030.06;;;18.83;100.00
38285;BME280;24088;42.664;23.354;2022-09-17T02:36:18;94034.63;;;18.81;100.00
38285;BME280;24088;42.664;23.354;2022-09-17T02:37:19;94054.34;;;18.83;100.00
38285;BME280;24088;42.664;23.354;2022-09-17T02:38:21;94054.72;;;19.01;100.00
38285;BME280;24088;42.664;23.354;2022-09-17T02:39:23;94055.22;;;19.06;100.00
38285;BME280;24088;42.664;23.354;2022-09-17T02:40:25;94062.53;;;19.03;100.00
38285;BME280;24088;42.664;23.354;2022-09-17T02:41:30;94069.38;;;19.02;100.00
38285;BME280;24088;42.664;23.354;2022-09-17T02:42:40;94081.03;;;19.06;100.00
38285;BME280;24088;42.664;23.354;2022-09-17T02:43:49;94081.81;;;19.12;100.00
38285;BME280;24088;42.664;23.354;2022-09-17T02:44:55;94092.41;;;19.14;100.00
38285;BME280;24088;42.664;23.354;2022-09-17T02:46:00;94073.97;;;19.16;100.00
38285;BME280;24088;42.664;23.354;2022-09-17T02:47:22;94063.38;;;19.15;100.00
38285;BME280;24088;42.664;23.354;2022-09-17T02:48:38;94058.50;;;19.04;100.00
38285;BME280;24088;42.664;23.354;2022-09-17T02:49:51;94074.19;;;19.01;100.00
38285;BME280;24088;42.664;23.354;2022-09-17T02:51:01;94076.22;;;19.07;100.00
38285;BME280;24088;42.664;23.354;2022-09-17T02:52:07;94072.94;;;19.08;100.00
38285;BME280;24088;42.664;23.354;2022-09-17T02:53:17;94060.97;;;18.96;100.00
38285;BME280;24088;42.664;23.354;2022-09-17T02:54:22;94063.53;;;19.06;100.00
38285;BME280;24088;42.664;23.354;2022-09-17T02:55:28;94081.06;;;19.17;100.00
38285;BME280;24088;42.664;23.354;2022-09-17T02:56:35;94089.75;;;18.88;100.00
38285;BME280;24088;42.664;23.354;2022-09-17T02:57:40;94090.50;;;18.88;100.00
38285;BME280;24088;42.664;23.354;2022-09-17T02:58:46;94090.03;;;18.90;100.00
38285;BME280;24088;42.664;23.354;2022-09-17T02:59:53;94076.59;;;18.88;100.00
38285;BME280;24088;42.664;23.354;2022-09-17T03:00:57;94067.03;;;18.95;100.00
38285;BME280;24088;42.664;23.354;2022-09-17T03:02:00;94061.72;;;18.91;100.00
38285;BME280;24088;42.664;23.354;2022-09-17T03:03:04;94051.66;;;18.99;100.00
38285;BME280;24088;42.664;23.354;2022-09-17T03:04:08;94050.69;;;19.08;100.00
38285;BME280;24088;42.664;23.354;2022-09-17T03:05:12;94051.41;;;18.97;100.00
38285;BME280;24088;42.664;23.354;2022-09-17T03:06:13;94048.31;;;18.90;100.00
38285;BME280;24088;42.664;23.354;2022-09-17T03:07:15;94047.22;;;18.76;100.00
38285;BME280;24088;42.664;23.354;2022-09-17T03:08:16;94045.75;;;18.81;100.00
38285;BME280;24088;42.664;23.354;2022-09-17T03:09:19;94038.94;;;18.87;100.00
38285;BME280;24088;42.664;23.354;2022-09-17T03:10:19;94040.22;;;18.92;100.00
38285;BME280;24088;42.664;23.354;2022-09-17T03:11:21;94036.69;;;18.97;100.00
38285;BME280;24088;42.664;23.354;2022-09-17T03:12:22;94022.53;;;18.89;100.00
38285;BME280;24088;42.664;23.354;2022-09-17T03:13:23;94023.28;;;18.90;100.00
38285;BME280;24088;42.664;23.354;2022-09-17T03:14:24;94026.81;;;18.90;100.00
38285;BME280;24088;42.664;23.354;2022-09-17T03:15:25;94044.25;;;18.91;100.00
38285;BME280;24088;42.664;23.354;2022-09-17T03:16:27;94039.66;;;18.76;100.00
38285;BME280;24088;42.664;23.354;2022-09-17T03:17:29;94046.00;;;18.83;100.00
38285;BME280;24088;42.664;23.354;2022-09-17T03:18:29;94041.25;;;18.94;100.00
38285;BME280;24088;42.664;23.354;2022-09-17T03:19:30;94047.13;;;19.02;100.00
38285;BME280;24088;42.664;23.354;2022-09-17T03:20:33;94040.00;;;19.01;100.00
38285;BME280;24088;42.664;23.354;2022-09-17T03:21:34;94041.56;;;19.02;100.00
38285;BME280;24088;42.664;23.354;2022-09-17T03:22:35;94037.94;;;18.85;100.00
38285;BME280;24088;42.664;23.354;2022-09-17T03:23:36;94045.53;;;18.90;100.00
38285;BME280;24088;42.664;23.354;2022-09-17T03:24:37;94049.09;;;18.96;100.00
38285;BME280;24088;42.664;23.354;2022-09-17T03:25:38;94048.00;;;18.82;100.00
38285;BME280;24088;42.664;23.354;2022-09-17T03:26:39;94046.72;;;18.77;100.00
38285;BME280;24088;42.664;23.354;2022-09-17T03:27:40;94042.53;;;18.93;100.00
38285;BME280;24088;42.664;23.354;2022-09-17T03:28:41;94035.47;;;19.04;100.00
38285;BME280;24088;42.664;23.354;2022-09-17T03:29:42;94043.06;;;19.03;100.00
38285;BME280;24088;42.664;23.354;2022-09-17T03:30:44;94053.44;;;19.02;100.00
38285;BME280;24088;42.664;23.354;2022-09-17T03:31:45;94049.81;;;18.91;100.00
38285;BME280;24088;42.664;23.354;2022-09-17T03:32:46;94054.09;;;18.86;100.00
38285;BME280;24088;42.664;23.354;2022-09-17T03:33:47;94049.56;;;18.89;100.00
38285;BME280;24088;42.664;23.354;2022-09-17T03:34:49;94037.66;;;18.83;100.00
38285;BME280;24088;42.664;23.354;2022-09-17T03:35:51;94025.00;;;18.82;100.00
38285;BME280;24088;42.664;23.354;2022-09-17T03:36:52;94030.38;;;18.91;100.00
38285;BME280;24088;42.664;23.354;2022-09-17T03:37:54;94033.41;;;18.93;100.00
38285;BME280;24088;42.664;23.354;2022-09-17T03:38:54;94025.53;;;18.86;100.00
38285;BME280;24088;42.664;23.354;2022-09-17T03:39:56;94035.09;;;18.79;100.00
38285;BME280;24088;42.664;23.354;2022-09-17T03:40:57;94043.63;;;18.70;100.00
38285;BME280;24088;42.664;23.354;2022-09-17T03:41:58;94039.72;;;18.56;100.00
38285;BME280;24088;42.664;23.354;2022-09-17T03:42:59;94034.16;;;18.50;100.00
38285;BME280;24088;42.664;23.354;2022-09-17T03:44:00;94010.19;;;18.59;100.00
38285;BME280;24088;42.664;23.354;2022-09-17T03:45:01;94002.69;;;18.70;100.00
38285;BME280;24088;42.664;23.354;2022-09-17T03:46:02;94015.28;;;18.66;100.00
38285;BME280;24088;42.664;23.354;2022-09-17T03:47:03;94020.84;;;18.66;100.00
38285;BME280;24088;42.664;23.354;2022-09-17T03:48:05;94017.06;;;18.63;100.00
38285;BME280;24088;42.664;23.354;2022-09-17T03:49:05;94012.34;;;18.38;100.00
38285;BME280;24088;42.664;23.354;2022-09-17T03:50:08;94002.53;;;18.48;100.00
38285;BME280;24088;42.664;23.354;2022-09-17T03:51:10;94009.25;;;18.67;100.00
38285;BME280;24088;42.664;23.354;2022-09-17T03:52:11;93997.81;;;18.60;100.00
38285;BME280;24088;42.664;23.354;2022-09-17T03:53:12;94001.47;;;18.40;100.00
38285;BME280;24088;42.664;23.354;2022-09-17T03:54:13;94002.72;;;18.39;100.00
38285;BME280;24088;42.664;23.354;2022-09-17T03:55:14;94013.97;;;18.56;100.00
38285;BME280;24088;42.664;23.354;2022-09-17T03:56:16;94021.34;;;18.64;100.00
38285;BME280;24088;42.664;23.354;2022-09-17T03:57:16;94010.00;;;18.68;100.00
38285;BME280;24088;42.664;23.354;2022-09-17T03:58:18;94005.00;;;18.72;100.00
38285;BME280;24088;42.664;23.354;2022-09-17T03:59:18;94003.50;;;18.76;100.00
38285;BME280;24088;42.664;23.354;2022-09-17T04:00:20;94012.09;;;18.79;100.00
38285;BME280;24088;42.664;23.354;2022-09-17T04:01:20;94015.16;;;18.81;100.00
38285;BME280;24088;42.664;23.354;2022-09-17T04:02:22;94022.22;;;18.82;100.00
38285;BME280;24088;42.664;23.354;2022-09-17T04:03:22;94025.31;;;18.89;100.00
38285;BME280;24088;42.664;23.354;2022-09-17T04:04:24;94031.63;;;18.90;100.00
38285;BME280;24088;42.664;23.354;2022-09-17T04:05:25;94033.41;;;18.93;100.00
38285;BME280;24088;42.664;23.354;2022-09-17T04:06:27;94024.81;;;18.96;100.00
38285;BME280;24088;42.664;23.354;2022-09-17T04:07:29;94034.44;;;18.95;100.00
38285;BME280;24088;42.664;23.354;2022-09-17T04:08:29;94033.66;;;18.95;100.00
38285;BME280;24088;42.664;23.354;2022-09-17T04:09:31;94046.28;;;18.90;100.00
38285;BME280;24088;42.664;23.354;2022-09-17T04:10:32;94046.50;;;18.87;100.00
38285;BME280;24088;42.664;23.354;2022-09-17T04:11:33;94043.75;;;18.87;100.00
38285;BME280;24088;42.664;23.354;2022-09-17T04:12:34;94046.81;;;18.89;100.00
38285;BME280;24088;42.664;23.354;2022-09-17T04:13:35;94035.16;;;18.90;100.00
38285;BME280;24088;42.664;23.354;2022-09-17T04:14:36;94038.97;;;18.93;100.00
38285;BME280;24088;42.664;23.354;2022-09-17T04:15:37;94036.47;;;19.00;100.00
38285;BME280;24088;42.664;23.354;2022-09-17T04:16:38;94040.00;;;18.95;100.00
38285;BME280;24088;42.664;23.354;2022-09-17T04:17:40;94058.94;;;18.97;100.00
38285;BME280;24088;42.664;23.354;2022-09-17T04:18:40;94061.50;;;19.00;100.00
38285;BME280;24088;42.664;23.354;2022-09-17T04:19:42;94075.72;;;19.14;100.00
38285;BME280;24088;42.664;23.354;2022-09-17T04:20:42;94079.31;;;19.14;100.00
38285;BME280;24088;42.664;23.354;2022-09-17T04:21:45;94084.06;;;19.14;100.00
38285;BME280;24088;42.664;23.354;2022-09-17T04:22:46;94086.59;;;19.12;100.00
38285;BME280;24088;42.664;23.354;2022-09-17T04:23:47;94092.16;;;19.06;100.00
38285;BME280;24088;42.664;23.354;2022-09-17T04:24:48;94106.81;;;19.07;100.00
38285;BME280;24088;42.664;23.354;2022-09-17T04:25:50;94105.63;;;19.19;100.00
38285;BME280;24088;42.664;23.354;2022-09-17T04:26:50;94106.09;;;19.17;100.00
38285;BME280;24088;42.664;23.354;2022-09-17T04:27:52;94103.53;;;19.08;100.00
38285;BME280;24088;42.664;23.354;2022-09-17T04:28:52;94108.88;;;19.17;100.00
38285;BME280;24088;42.664;23.354;2022-09-17T04:29:54;94118.25;;;19.14;100.00
38285;BME280;24088;42.664;23.354;2022-09-17T04:30:54;94128.56;;;19.08;100.00
38285;BME280;24088;42.664;23.354;2022-09-17T04:31:56;94128.00;;;18.98;100.00
38285;BME280;24088;42.664;23.354;2022-09-17T04:32:57;94129.00;;;18.95;100.00
38285;BME280;24088;42.664;23.354;2022-09-17T04:33:58;94124.13;;;18.85;100.00
38285;BME280;24088;42.664;23.354;2022-09-17T04:34:59;94128.19;;;18.89;100.00
38285;BME280;24088;42.664;23.354;2022-09-17T04:36:00;94128.00;;;18.98;100.00
38285;BME280;24088;42.664;23.354;2022-09-17T04:37:02;94134.31;;;18.99;100.00
38285;BME280;24088;42.664;23.354;2022-09-17T04:38:04;94139.66;;;19.02;100.00
38285;BME280;24088;42.664;23.354;2022-09-17T04:39:04;94141.38;;;18.94;100.00
38285;BME280;24088;42.664;23.354;2022-09-17T04:40:06;94145.16;;;18.97;100.00
38285;BME280;24088;42.664;23.354;2022-09-17T04:41:07;94153.25;;;18.95;100.00
38285;BME280;24088;42.664;23.354;2022-09-17T04:42:08;94151.50;;;18.97;100.00
38285;BME280;24088;42.664;23.354;2022-09-17T04:43:09;94159.78;;;18.86;100.00
38285;BME280;24088;42.664;23.354;2022-09-17T04:44:10;94163.53;;;18.83;100.00
38285;BME280;24088;42.664;23.354;2022-09-17T04:45:11;94163.81;;;18.85;100.00
38285;BME280;24088;42.664;23.354;2022-09-17T04:46:12;94167.91;;;18.95;100.00
38285;BME280;24088;42.664;23.354;2022-09-17T04:47:13;94176.47;;;18.92;100.00
38285;BME280;24088;42.664;23.354;2022-09-17T04:48:15;94179.63;;;18.73;100.00
38285;BME280;24088;42.664;23.354;2022-09-17T04:49:15;94185.03;;;18.88;100.00
38285;BME280;24088;42.664;23.354;2022-09-17T04:50:17;94190.38;;;18.92;100.00
38285;BME280;24088;42.664;23.354;2022-09-17T04:51:17;94182.59;;;18.96;100.00
38285;BME280;24088;42.664;23.354;2022-09-17T04:52:20;94187.38;;;18.95;100.00
38285;BME280;24088;42.664;23.354;2022-09-17T04:53:21;94189.50;;;19.06;100.00
38285;BME280;24088;42.664;23.354;2022-09-17T04:54:22;94188.78;;;18.80;100.00
38285;BME280;24088;42.664;23.354;2022-09-17T04:55:23;94194.50;;;18.70;100.00
38285;BME280;24088;42.664;23.354;2022-09-17T04:56:25;94198.91;;;18.83;100.00
38285;BME280;24088;42.664;23.354;2022-09-17T04:57:26;94203.13;;;18.72;100.00
38285;BME280;24088;42.664;23.354;2022-09-17T04:58:27;94188.94;;;18.70;100.00
38285;BME280;24088;42.664;23.354;2022-09-17T04:59:30;94198.69;;;18.86;100.00
38285;BME280;24088;42.664;23.354;2022-09-17T05:00:31;94197.50;;;18.93;100.00
38285;BME280;24088;42.664;23.354;2022-09-17T05:01:32;94195.22;;;18.97;100.00
38285;BME280;24088;42.664;23.354;2022-09-17T05:02:33;94198.28;;;18.99;100.00
38285;BME280;24088;42.664;23.354;2022-09-17T05:03:34;94200.00;;;18.91;100.00
38285;BME280;24088;42.664;23.354;2022-09-17T05:04:35;94199.50;;;18.92;100.00
38285;BME280;24088;42.664;23.354;2022-09-17T05:05:36;94197.94;;;18.86;100.00
38285;BME280;24088;42.664;23.354;2022-09-17T05:06:37;94200.13;;;18.76;100.00
38285;BME280;24088;42.664;23.354;2022-09-17T05:07:39;94194.56;;;18.76;100.00
38285;BME280;24088;42.664;23.354;2022-09-17T05:08:41;94200.97;;;18.88;100.00
38285;BME280;24088;42.664;23.354;2022-09-17T05:09:41;94196.97;;;18.89;100.00
38285;BME280;24088;42.664;23.354;2022-09-17T05:10:43;94195.13;;;18.80;100.00
38285;BME280;24088;42.664;23.354;2022-09-17T05:11:44;94187.06;;;18.88;100.00
38285;BME280;24088;42.664;23.354;2022-09-17T05:12:49;94192.38;;;18.86;100.00
38285;BME280;24088;42.664;23.354;2022-09-17T05:13:49;94188.66;;;18.94;100.00
38285;BME280;24088;42.664;23.354;2022-09-17T05:14:51;94190.94;;;18.96;100.00
38285;BME280;24088;42.664;23.354;2022-09-17T05:15:52;94181.72;;;18.84;100.00
38285;BME280;24088;42.664;23.354;2022-09-17T05:16:55;94185.28;;;18.85;100.00
38285;BME280;24088;42.664;23.354;2022-09-17T05:17:56;94186.38;;;18.93;100.00
38285;BME280;24088;42.664;23.354;2022-09-17T05:18:57;94188.22;;;19.01;100.00
38285;BME280;24088;42.664;23.354;2022-09-17T05:19:58;94184.91;;;19.03;100.00
38285;BME280;24088;42.664;23.354;2022-09-17T05:20:59;94180.63;;;19.02;100.00
38285;BME280;24088;42.664;23.354;2022-09-17T05:21:59;94167.06;;;18.84;100.00
38285;BME280;24088;42.664;23.354;2022-09-17T05:23:02;94172.38;;;18.82;100.00
38285;BME280;24088;42.664;23.354;2022-09-17T05:24:04;94159.19;;;18.76;100.00
38285;BME280;24088;42.664;23.354;2022-09-17T05:25:05;94160.03;;;18.88;100.00
38285;BME280;24088;42.664;23.354;2022-09-17T05:26:06;94154.56;;;19.05;100.00
38285;BME280;24088;42.664;23.354;2022-09-17T05:27:07;94142.28;;;19.17;100.00
38285;BME280;24088;42.664;23.354;2022-09-17T05:28:09;94141.53;;;19.22;100.00
38285;BME280;24088;42.664;23.354;2022-09-17T05:29:09;94139.22;;;19.15;100.00